sensor_id;sensor_type;location;lat;lon;timestamp;pressure;altitude;pressure_sealevel;temperature;humidity
72096;BME280;59968;51.084;16.748;2024-02-14T00:02:16;100766.23;;;3.35;69.78
72096;BME280;59968;51.084;16.748;2024-02-14T00:04:48;100770.05;;;3.35;69.78
72096;BME280;59968;51.084;16.748;2024-02-14T00:07:19;100767.91;;;3.34;69.87
72096;BME280;59968;51.084;16.748;2024-02-14T00:09:51;100762.39;;;3.30;70.03
72096;BME280;59968;51.084;16.748;2024-02-14T00:12:20;100762.30;;;3.34;70.11
72096;BME280;59968;51.084;16.748;2024-02-14T00:14:49;100763.02;;;3.29;69.97
72096;BME280;59968;51.084;16.748;2024-02-14T00:17:18;100762.10;;;3.30;69.96
72096;BME280;59968;51.084;16.748;2024-02-14T00:19:47;100762.26;;;3.30;70.05
72096;BME280;59968;51.084;16.748;2024-02-14T00:22:21;100759.46;;;3.26;70.05
72096;BME280;59968;51.084;16.748;2024-02-14T00:24:54;100767.30;;;3.39;69.63
72096;BME280;59968;51.084;16.748;2024-02-14T00:27:28;100768.98;;;3.31;69.69
72096;BME280;59968;51.084;16.748;2024-02-14T00:29:56;100766.04;;;3.22;69.87
72096;BME280;59968;51.084;16.748;2024-02-14T00:32:38;100767.48;;;3.18;69.77
72096;BME280;59968;51.084;16.748;2024-02-14T00:35:07;100773.18;;;3.18;70.01
72096;BME280;59968;51.084;16.748;2024-02-14T00:37:37;100770.86;;;3.17;70.17
72096;BME280;59968;51.084;16.748;2024-02-14T00:40:07;100770.91;;;3.16;70.16
72096;BME280;59968;51.084;16.748;2024-02-14T00:42:36;100781.35;;;3.18;70.23
72096;BME280;59968;51.084;16.748;2024-02-14T00:45:09;100783.43;;;3.18;70.25
72096;BME280;59968;51.084;16.748;2024-02-14T00:47:41;100776.63;;;3.16;70.03
72096;BME280;59968;51.084;16.748;2024-02-14T00:50:11;100772.11;;;3.17;70.27
72096;BME280;59968;51.084;16.748;2024-02-14T00:52:48;100779.56;;;3.21;70.43
72096;BME280;59968;51.084;16.748;2024-02-14T00:55:17;100777.45;;;3.16;70.43
72096;BME280;59968;51.084;16.748;2024-02-14T00:57:45;100777.04;;;3.17;70.62
72096;BME280;59968;51.084;16.748;2024-02-14T01:00:14;100780.02;;;3.25;70.38
72096;BME280;59968;51.084;16.748;2024-02-14T01:02:46;100778.87;;;3.25;70.45
72096;BME280;59968;51.084;16.748;2024-02-14T01:05:14;100781.92;;;3.30;70.35
72096;BME280;59968;51.084;16.748;2024-02-14T01:07:46;100773.49;;;3.25;70.43
72096;BME280;59968;51.084;16.748;2024-02-14T01:10:16;100784.58;;;3.31;70.22
72096;BME280;59968;51.084;16.748;2024-02-14T01:12:47;100782.98;;;3.29;70.18
72096;BME280;59968;51.084;16.748;2024-02-14T01:15:19;100781.90;;;3.28;70.25
72096;BME280;59968;51.084;16.748;2024-02-14T01:17:50;100782.18;;;3.25;70.17
72096;BME280;59968;51.084;16.748;2024-02-14T01:20:19;100772.40;;;3.19;70.10
72096;BME280;59968;51.084;16.748;2024-02-14T01:22:48;100777.33;;;3.25;70.21
72096;BME280;59968;51.084;16.748;2024-02-14T01:25:23;100777.27;;;3.26;70.31
72096;BME280;59968;51.084;16.748;2024-02-14T01:27:52;100775.77;;;3.25;70.28
72096;BME280;59968;51.084;16.748;2024-02-14T01:30:21;100776.34;;;3.21;70.37
72096;BME280;59968;51.084;16.748;2024-02-14T01:32:52;100773.79;;;3.19;70.61
72096;BME280;59968;51.084;16.748;2024-02-14T01:35:24;100771.39;;;3.23;70.29
72096;BME280;59968;51.084;16.748;2024-02-14T01:37:52;100773.48;;;3.22;69.96
72096;BME280;59968;51.084;16.748;2024-02-14T01:40:25;100767.71;;;3.20;69.90
72096;BME280;59968;51.084;16.748;2024-02-14T01:42:57;100767.69;;;3.18;70.09
72096;BME280;59968;51.084;16.748;2024-02-14T01:45:26;100768.02;;;3.15;70.05
72096;BME280;59968;51.084;16.748;2024-02-14T01:47:56;100768.72;;;3.12;69.80
72096;BME280;59968;51.084;16.748;2024-02-14T01:50:28;100772.00;;;3.08;70.05
72096;BME280;59968;51.084;16.748;2024-02-14T01:52:59;100771.49;;;3.08;69.89
72096;BME280;59968;51.084;16.748;2024-02-14T01:55:28;100771.15;;;3.06;69.72
72096;BME280;59968;51.084;16.748;2024-02-14T01:57:58;100769.73;;;3.04;69.68
72096;BME280;59968;51.084;16.748;2024-02-14T02:00:27;100768.58;;;3.04;69.65
72096;BME280;59968;51.084;16.748;2024-02-14T02:02:58;100768.41;;;3.00;69.60
72096;BME280;59968;51.084;16.748;2024-02-14T02:05:27;100769.81;;;2.93;69.76
72096;BME280;59968;51.084;16.748;2024-02-14T02:07:57;100770.40;;;2.95;69.86
72096;BME280;59968;51.084;16.748;2024-02-14T02:10:33;100765.89;;;2.95;69.91
72096;BME280;59968;51.084;16.748;2024-02-14T02:13:02;100767.81;;;2.93;69.94
72096;BME280;59968;51.084;16.748;2024-02-14T02:15:34;100766.63;;;2.93;69.88
72096;BME280;59968;51.084;16.748;2024-02-14T02:18:06;100766.80;;;2.91;70.00
72096;BME280;59968;51.084;16.748;2024-02-14T02:20:36;100762.93;;;2.90;70.29
72096;BME280;59968;51.084;16.748;2024-02-14T02:23:05;100762.48;;;2.91;70.35
72096;BME280;59968;51.084;16.748;2024-02-14T02:25:37;100762.59;;;2.90;70.23
72096;BME280;59968;51.084;16.748;2024-02-14T02:28:05;100761.85;;;2.93;70.05
72096;BME280;59968;51.084;16.748;2024-02-14T02:30:35;100761.59;;;2.98;70.08
72096;BME280;59968;51.084;16.748;2024-02-14T02:33:07;100760.80;;;2.97;70.03
72096;BME280;59968;51.084;16.748;2024-02-14T02:35:36;100762.96;;;2.98;70.12
72096;BME280;59968;51.084;16.748;2024-02-14T02:38:05;100760.93;;;3.02;69.98
72096;BME280;59968;51.084;16.748;2024-02-14T02:40:34;100761.30;;;3.01;69.95
72096;BME280;59968;51.084;16.748;2024-02-14T02:43:02;100757.39;;;3.01;69.98
72096;BME280;59968;51.084;16.748;2024-02-14T02:45:34;100758.30;;;3.04;69.77
72096;BME280;59968;51.084;16.748;2024-02-14T02:48:03;100757.77;;;3.05;69.73
72096;BME280;59968;51.084;16.748;2024-02-14T02:50:32;100761.86;;;3.03;69.62
72096;BME280;59968;51.084;16.748;2024-02-14T02:53:01;100764.22;;;2.97;69.62
72096;BME280;59968;51.084;16.748;2024-02-14T02:55:30;100764.50;;;2.92;69.74
72096;BME280;59968;51.084;16.748;2024-02-14T02:57:59;100761.10;;;2.86;69.80
72096;BME280;59968;51.084;16.748;2024-02-14T03:00:29;100757.27;;;2.80;70.03
72096;BME280;59968;51.084;16.748;2024-02-14T03:02:58;100761.78;;;2.86;70.05
72096;BME280;59968;51.084;16.748;2024-02-14T03:05:27;100758.73;;;2.77;70.13
72096;BME280;59968;51.084;16.748;2024-02-14T03:07:57;100755.27;;;2.78;70.20
72096;BME280;59968;51.084;16.748;2024-02-14T03:10:27;100758.05;;;2.73;70.20
72096;BME280;59968;51.084;16.748;2024-02-14T03:12:57;100758.23;;;2.69;70.42
72096;BME280;59968;51.084;16.748;2024-02-14T03:15:28;100758.24;;;2.69;70.67
72096;BME280;59968;51.084;16.748;2024-02-14T03:17:57;100755.92;;;2.68;70.53
72096;BME280;59968;51.084;16.748;2024-02-14T03:20:26;100759.55;;;2.71;70.39
72096;BME280;59968;51.084;16.748;2024-02-14T03:22:58;100761.19;;;2.74;70.31
72096;BME280;59968;51.084;16.748;2024-02-14T03:25:26;100760.96;;;2.73;70.34
72096;BME280;59968;51.084;16.748;2024-02-14T03:27:55;100760.42;;;2.73;70.33
72096;BME280;59968;51.084;16.748;2024-02-14T03:30:25;100760.42;;;2.73;70.40
72096;BME280;59968;51.084;16.748;2024-02-14T03:32:54;100762.25;;;2.76;70.13
72096;BME280;59968;51.084;16.748;2024-02-14T03:35:27;100759.61;;;2.77;69.86
72096;BME280;59968;51.084;16.748;2024-02-14T03:37:59;100760.96;;;2.75;69.97
72096;BME280;59968;51.084;16.748;2024-02-14T03:40:31;100766.64;;;2.77;70.30
72096;BME280;59968;51.084;16.748;2024-02-14T03:43:00;100762.69;;;2.75;70.00
72096;BME280;59968;51.084;16.748;2024-02-14T03:45:28;100770.48;;;2.74;69.90
72096;BME280;59968;51.084;16.748;2024-02-14T03:47:58;100772.48;;;2.66;70.05
72096;BME280;59968;51.084;16.748;2024-02-14T03:50:27;100760.66;;;2.54;70.07
72096;BME280;59968;51.084;16.748;2024-02-14T03:53:01;100773.86;;;2.59;70.12
72096;BME280;59968;51.084;16.748;2024-02-14T03:55:32;100768.95;;;2.59;70.19
72096;BME280;59968;51.084;16.748;2024-02-14T03:58:01;100774.23;;;2.68;69.98
72096;BME280;59968;51.084;16.748;2024-02-14T04:00:32;100772.19;;;2.69;69.95
72096;BME280;59968;51.084;16.748;2024-02-14T04:03:04;100773.17;;;2.68;70.26
72096;BME280;59968;51.084;16.748;2024-02-14T04:05:34;100777.35;;;2.67;70.35
72096;BME280;59968;51.084;16.748;2024-02-14T04:08:02;100770.17;;;2.61;70.35
72096;BME280;59968;51.084;16.748;2024-02-14T04:10:31;100784.52;;;2.67;70.62
72096;BME280;59968;51.084;16.748;2024-02-14T04:13:00;100779.19;;;2.68;70.69
72096;BME280;59968;51.084;16.748;2024-02-14T04:15:30;100779.35;;;2.68;70.65
72096;BME280;59968;51.084;16.748;2024-02-14T04:17:59;100780.05;;;2.68;70.63
72096;BME280;59968;51.084;16.748;2024-02-14T04:20:35;100780.34;;;2.70;70.69
72096;BME280;59968;51.084;16.748;2024-02-14T04:23:04;100773.80;;;2.73;70.92
72096;BME280;59968;51.084;16.748;2024-02-14T04:25:35;100773.98;;;2.77;70.66
72096;BME280;59968;51.084;16.748;2024-02-14T04:28:04;100774.16;;;2.79;70.45
72096;BME280;59968;51.084;16.748;2024-02-14T04:30:34;100771.62;;;2.80;70.38
72096;BME280;59968;51.084;16.748;2024-02-14T04:33:04;100775.71;;;2.80;70.21
72096;BME280;59968;51.084;16.748;2024-02-14T04:35:40;100774.49;;;2.79;70.19
72096;BME280;59968;51.084;16.748;2024-02-14T04:38:09;100770.04;;;2.81;70.11
72096;BME280;59968;51.084;16.748;2024-02-14T04:40:37;100768.59;;;2.80;69.84
72096;BME280;59968;51.084;16.748;2024-02-14T04:43:06;100766.30;;;2.73;69.84
72096;BME280;59968;51.084;16.748;2024-02-14T04:45:36;100772.20;;;2.73;69.92
72096;BME280;59968;51.084;16.748;2024-02-14T04:48:05;100770.42;;;2.64;70.22
72096;BME280;59968;51.084;16.748;2024-02-14T04:50:34;100768.85;;;2.60;70.50
72096;BME280;59968;51.084;16.748;2024-02-14T04:53:04;100768.41;;;2.64;70.45
72096;BME280;59968;51.084;16.748;2024-02-14T04:55:33;100770.14;;;2.80;70.06
72096;BME280;59968;51.084;16.748;2024-02-14T04:58:02;100768.15;;;2.81;69.89
72096;BME280;59968;51.084;16.748;2024-02-14T05:00:30;100753.05;;;2.55;70.35
72096;BME280;59968;51.084;16.748;2024-02-14T05:02:59;100765.13;;;2.64;70.45
72096;BME280;59968;51.084;16.748;2024-02-14T05:05:28;100764.81;;;2.80;69.84
72096;BME280;59968;51.084;16.748;2024-02-14T05:07:57;100761.20;;;2.82;69.77
72096;BME280;59968;51.084;16.748;2024-02-14T05:10:26;100758.46;;;2.80;69.92
72096;BME280;59968;51.084;16.748;2024-02-14T05:12:55;100760.91;;;2.84;69.96
72096;BME280;59968;51.084;16.748;2024-02-14T05:15:24;100756.82;;;2.86;69.82
72096;BME280;59968;51.084;16.748;2024-02-14T05:17:53;100760.55;;;2.86;69.84
72096;BME280;59968;51.084;16.748;2024-02-14T05:20:22;100758.27;;;2.83;70.11
72096;BME280;59968;51.084;16.748;2024-02-14T05:22:51;100759.09;;;2.81;70.13
72096;BME280;59968;51.084;16.748;2024-02-14T05:25:21;100763.00;;;2.86;69.95
72096;BME280;59968;51.084;16.748;2024-02-14T05:27:49;100758.48;;;2.88;69.66
72096;BME280;59968;51.084;16.748;2024-02-14T05:30:18;100754.98;;;2.88;69.51
72096;BME280;59968;51.084;16.748;2024-02-14T05:32:47;100754.46;;;2.87;69.41
72096;BME280;59968;51.084;16.748;2024-02-14T05:35:16;100755.14;;;2.87;69.42
72096;BME280;59968;51.084;16.748;2024-02-14T05:37:45;100752.14;;;2.89;69.57
72096;BME280;59968;51.084;16.748;2024-02-14T05:40:17;100738.77;;;2.85;69.84
72096;BME280;59968;51.084;16.748;2024-02-14T05:42:47;100745.94;;;2.93;69.82
72096;BME280;59968;51.084;16.748;2024-02-14T05:45:16;100751.64;;;2.79;70.34
72096;BME280;59968;51.084;16.748;2024-02-14T05:47:44;100752.48;;;2.80;70.20
72096;BME280;59968;51.084;16.748;2024-02-14T05:50:14;100752.80;;;2.93;69.76
72096;BME280;59968;51.084;16.748;2024-02-14T05:52:42;100749.17;;;2.93;69.70
72096;BME280;59968;51.084;16.748;2024-02-14T05:55:11;100755.84;;;2.97;69.97
72096;BME280;59968;51.084;16.748;2024-02-14T05:57:40;100757.98;;;3.00;70.06
72096;BME280;59968;51.084;16.748;2024-02-14T06:00:10;100751.60;;;3.03;69.86
72096;BME280;59968;51.084;16.748;2024-02-14T06:02:41;100749.92;;;3.07;69.80
72096;BME280;59968;51.084;16.748;2024-02-14T06:05:10;100753.58;;;3.10;69.81
72096;BME280;59968;51.084;16.748;2024-02-14T06:07:42;100752.46;;;3.12;69.95
72096;BME280;59968;51.084;16.748;2024-02-14T06:10:15;100758.20;;;3.17;69.77
72096;BME280;59968;51.084;16.748;2024-02-14T06:12:45;100759.31;;;3.14;69.52
72096;BME280;59968;51.084;16.748;2024-02-14T06:15:17;100763.41;;;2.97;69.66
72096;BME280;59968;51.084;16.748;2024-02-14T06:17:48;100764.30;;;2.86;69.87
72096;BME280;59968;51.084;16.748;2024-02-14T06:20:17;100764.45;;;2.80;69.85
72096;BME280;59968;51.084;16.748;2024-02-14T06:22:47;100765.86;;;2.76;69.77
72096;BME280;59968;51.084;16.748;2024-02-14T06:25:28;100769.38;;;2.73;69.83
72096;BME280;59968;51.084;16.748;2024-02-14T06:27:58;100774.84;;;2.71;70.02
72096;BME280;59968;51.084;16.748;2024-02-14T06:30:27;100775.84;;;2.71;70.17
72096;BME280;59968;51.084;16.748;2024-02-14T06:33:00;100777.43;;;2.72;70.30
72096;BME280;59968;51.084;16.748;2024-02-14T06:35:32;100767.33;;;2.71;70.27
72096;BME280;59968;51.084;16.748;2024-02-14T06:38:03;100780.05;;;2.78;70.25
72096;BME280;59968;51.084;16.748;2024-02-14T06:40:33;100786.90;;;2.82;70.13
72096;BME280;59968;51.084;16.748;2024-02-14T06:43:02;100788.42;;;2.86;70.31
72096;BME280;59968;51.084;16.748;2024-02-14T06:45:32;100783.23;;;2.90;70.45
72096;BME280;59968;51.084;16.748;2024-02-14T06:48:04;100782.45;;;2.95;70.50
72096;BME280;59968;51.084;16.748;2024-02-14T06:50:34;100781.27;;;2.99;70.48
72096;BME280;59968;51.084;16.748;2024-02-14T06:53:04;100782.48;;;3.05;70.60
72096;BME280;59968;51.084;16.748;2024-02-14T06:55:33;100780.71;;;3.12;70.52
72096;BME280;59968;51.084;16.748;2024-02-14T06:58:06;100777.09;;;3.18;70.45
72096;BME280;59968;51.084;16.748;2024-02-14T07:00:35;100778.65;;;3.26;70.53
72096;BME280;59968;51.084;16.748;2024-02-14T07:03:04;100774.98;;;3.33;70.56
72096;BME280;59968;51.084;16.748;2024-02-14T07:05:33;100774.06;;;3.42;70.68
72096;BME280;59968;51.084;16.748;2024-02-14T07:08:03;100772.96;;;3.48;70.69
72096;BME280;59968;51.084;16.748;2024-02-14T07:10:31;100777.62;;;3.54;70.67
72096;BME280;59968;51.084;16.748;2024-02-14T07:13:00;100777.63;;;3.61;70.50
72096;BME280;59968;51.084;16.748;2024-02-14T07:15:30;100782.55;;;3.66;70.56
72096;BME280;59968;51.084;16.748;2024-02-14T07:18:02;100782.55;;;3.67;70.54
72096;BME280;59968;51.084;16.748;2024-02-14T07:20:32;100779.46;;;3.72;70.64
72096;BME280;59968;51.084;16.748;2024-02-14T07:23:01;100773.88;;;3.90;70.23
72096;BME280;59968;51.084;16.748;2024-02-14T07:25:30;100769.47;;;4.03;70.23
72096;BME280;59968;51.084;16.748;2024-02-14T07:27:59;100769.23;;;4.12;70.24
72096;BME280;59968;51.084;16.748;2024-02-14T07:30:28;100770.58;;;4.23;70.23
72096;BME280;59968;51.084;16.748;2024-02-14T07:32:57;100771.41;;;4.29;70.24
72096;BME280;59968;51.084;16.748;2024-02-14T07:35:27;100771.23;;;4.33;70.28
72096;BME280;59968;51.084;16.748;2024-02-14T07:37:56;100770.93;;;4.40;70.34
72096;BME280;59968;51.084;16.748;2024-02-14T07:40:28;100772.98;;;4.49;70.31
72096;BME280;59968;51.084;16.748;2024-02-14T07:43:00;100765.92;;;4.59;70.28
72096;BME280;59968;51.084;16.748;2024-02-14T07:45:29;100763.98;;;4.69;70.28
72096;BME280;59968;51.084;16.748;2024-02-14T07:47:59;100769.16;;;4.80;70.22
72096;BME280;59968;51.084;16.748;2024-02-14T07:50:28;100770.94;;;4.88;70.29
72096;BME280;59968;51.084;16.748;2024-02-14T07:52:58;100766.14;;;4.99;70.11
72096;BME280;59968;51.084;16.748;2024-02-14T07:55:27;100762.57;;;5.07;70.01
72096;BME280;59968;51.084;16.748;2024-02-14T07:57:56;100766.29;;;5.12;70.00
72096;BME280;59968;51.084;16.748;2024-02-14T08:00:28;100767.89;;;5.19;69.97
72096;BME280;59968;51.084;16.748;2024-02-14T08:02:57;100767.16;;;5.18;70.15
72096;BME280;59968;51.084;16.748;2024-02-14T08:05:30;100763.17;;;5.29;70.20
72096;BME280;59968;51.084;16.748;2024-02-14T08:07:59;100766.22;;;5.39;69.98
72096;BME280;59968;51.084;16.748;2024-02-14T08:10:30;100765.15;;;5.46;69.89
72096;BME280;59968;51.084;16.748;2024-02-14T08:13:01;100768.43;;;5.57;69.79
72096;BME280;59968;51.084;16.748;2024-02-14T08:15:32;100769.98;;;5.66;69.73
72096;BME280;59968;51.084;16.748;2024-02-14T08:18:01;100769.48;;;5.74;69.69
72096;BME280;59968;51.084;16.748;2024-02-14T08:20:40;100771.13;;;5.84;69.43
72096;BME280;59968;51.084;16.748;2024-02-14T08:23:10;100770.09;;;5.95;69.26
72096;BME280;59968;51.084;16.748;2024-02-14T08:25:38;100765.59;;;6.04;69.25
72096;BME280;59968;51.084;16.748;2024-02-14T08:28:11;100768.39;;;6.16;69.20
72096;BME280;59968;51.084;16.748;2024-02-14T08:30:40;100767.41;;;6.26;69.13
72096;BME280;59968;51.084;16.748;2024-02-14T08:33:10;100764.69;;;6.36;68.97
72096;BME280;59968;51.084;16.748;2024-02-14T08:35:42;100762.08;;;6.45;68.85
72096;BME280;59968;51.084;16.748;2024-02-14T08:38:12;100762.98;;;6.49;68.67
72096;BME280;59968;51.084;16.748;2024-02-14T08:40:43;100763.64;;;6.58;68.45
72096;BME280;59968;51.084;16.748;2024-02-14T08:43:12;100764.61;;;6.63;68.56
72096;BME280;59968;51.084;16.748;2024-02-14T08:45:41;100767.77;;;6.72;68.73
72096;BME280;59968;51.084;16.748;2024-02-14T08:48:10;100771.52;;;6.82;68.80
72096;BME280;59968;51.084;16.748;2024-02-14T08:50:40;100771.67;;;6.84;68.79
72096;BME280;59968;51.084;16.748;2024-02-14T08:53:09;100767.72;;;6.83;69.20
72096;BME280;59968;51.084;16.748;2024-02-14T08:55:42;100770.07;;;7.10;68.87
72096;BME280;59968;51.084;16.748;2024-02-14T08:58:12;100764.64;;;7.25;68.28
72096;BME280;59968;51.084;16.748;2024-02-14T09:00:41;100764.55;;;7.35;68.34
72096;BME280;59968;51.084;16.748;2024-02-14T09:03:10;100760.05;;;7.46;68.00
72096;BME280;59968;51.084;16.748;2024-02-14T09:05:39;100764.02;;;7.57;67.94
72096;BME280;59968;51.084;16.748;2024-02-14T09:08:09;100762.30;;;7.67;67.56
72096;BME280;59968;51.084;16.748;2024-02-14T09:10:38;100757.55;;;7.78;67.39
72096;BME280;59968;51.084;16.748;2024-02-14T09:13:07;100754.84;;;7.76;67.77
72096;BME280;59968;51.084;16.748;2024-02-14T09:15:37;100752.54;;;7.79;68.13
72096;BME280;59968;51.084;16.748;2024-02-14T09:18:13;100747.73;;;7.91;67.56
72096;BME280;59968;51.084;16.748;2024-02-14T09:20:45;100743.74;;;7.99;67.74
72096;BME280;59968;51.084;16.748;2024-02-14T09:23:18;100745.99;;;8.23;67.13
72096;BME280;59968;51.084;16.748;2024-02-14T09:25:51;100746.55;;;8.35;67.07
72096;BME280;59968;51.084;16.748;2024-02-14T09:28:20;100743.34;;;8.40;66.92
72096;BME280;59968;51.084;16.748;2024-02-14T09:30:49;100743.14;;;8.52;66.25
72096;BME280;59968;51.084;16.748;2024-02-14T09:33:18;100744.55;;;8.56;65.81
72096;BME280;59968;51.084;16.748;2024-02-14T09:35:49;100744.05;;;8.64;66.26
72096;BME280;59968;51.084;16.748;2024-02-14T09:38:21;100746.77;;;8.75;66.21
72096;BME280;59968;51.084;16.748;2024-02-14T09:41:15;100748.09;;;8.85;65.82
72096;BME280;59968;51.084;16.748;2024-02-14T09:43:46;100747.27;;;8.97;65.85
72096;BME280;59968;51.084;16.748;2024-02-14T09:46:16;100746.00;;;9.08;65.86
72096;BME280;59968;51.084;16.748;2024-02-14T09:48:45;100745.25;;;9.18;65.43
72096;BME280;59968;51.084;16.748;2024-02-14T09:51:15;100746.58;;;9.31;65.19
72096;BME280;59968;51.084;16.748;2024-02-14T09:53:45;100742.23;;;9.27;65.36
72096;BME280;59968;51.084;16.748;2024-02-14T09:56:16;100737.13;;;9.32;65.12
72096;BME280;59968;51.084;16.748;2024-02-14T09:58:50;100732.02;;;9.42;65.03
72096;BME280;59968;51.084;16.748;2024-02-14T10:01:26;100726.92;;;9.54;64.86
72096;BME280;59968;51.084;16.748;2024-02-14T10:03:57;100725.55;;;9.62;64.47
72096;BME280;59968;51.084;16.748;2024-02-14T10:06:27;100723.80;;;9.70;64.16
72096;BME280;59968;51.084;16.748;2024-02-14T10:08:57;100723.40;;;9.82;64.28
72096;BME280;59968;51.084;16.748;2024-02-14T10:11:32;100710.95;;;9.83;64.58
72096;BME280;59968;51.084;16.748;2024-02-14T10:14:09;100716.25;;;9.97;63.91
72096;BME280;59968;51.084;16.748;2024-02-14T10:16:40;100712.02;;;10.02;63.82
72096;BME280;59968;51.084;16.748;2024-02-14T10:19:18;100703.64;;;10.09;63.44
72096;BME280;59968;51.084;16.748;2024-02-14T10:22:00;100696.70;;;10.14;63.22
72096;BME280;59968;51.084;16.748;2024-02-14T10:24:32;100697.48;;;10.24;63.08
72096;BME280;59968;51.084;16.748;2024-02-14T10:27:02;100693.52;;;10.31;62.45
72096;BME280;59968;51.084;16.748;2024-02-14T10:29:34;100688.51;;;10.35;62.34
72096;BME280;59968;51.084;16.748;2024-02-14T10:32:24;100685.08;;;10.41;61.96
72096;BME280;59968;51.084;16.748;2024-02-14T10:34:53;100683.38;;;10.51;61.88
72096;BME280;59968;51.084;16.748;2024-02-14T10:37:26;100682.10;;;10.59;61.74
72096;BME280;59968;51.084;16.748;2024-02-14T10:40:01;100681.18;;;10.65;61.57
72096;BME280;59968;51.084;16.748;2024-02-14T10:42:31;100683.72;;;10.70;61.21
72096;BME280;59968;51.084;16.748;2024-02-14T10:45:01;100682.27;;;10.76;61.53
72096;BME280;59968;51.084;16.748;2024-02-14T10:47:33;100675.60;;;10.84;61.82
72096;BME280;59968;51.084;16.748;2024-02-14T10:50:05;100676.14;;;10.95;62.02
72096;BME280;59968;51.084;16.748;2024-02-14T10:52:36;100675.30;;;11.07;61.91
72096;BME280;59968;51.084;16.748;2024-02-14T10:55:05;100671.92;;;11.19;61.55
72096;BME280;59968;51.084;16.748;2024-02-14T10:57:34;100667.44;;;11.29;60.57
72096;BME280;59968;51.084;16.748;2024-02-14T11:00:06;100662.20;;;11.37;59.81
72096;BME280;59968;51.084;16.748;2024-02-14T11:02:38;100661.20;;;11.40;59.87
72096;BME280;59968;51.084;16.748;2024-02-14T11:05:19;100651.14;;;11.46;59.72
72096;BME280;59968;51.084;16.748;2024-02-14T11:07:51;100638.19;;;11.50;59.98
72096;BME280;59968;51.084;16.748;2024-02-14T11:10:22;100643.80;;;11.62;59.26
72096;BME280;59968;51.084;16.748;2024-02-14T11:12:54;100644.09;;;11.70;59.23
72096;BME280;59968;51.084;16.748;2024-02-14T11:15:24;100642.17;;;11.78;58.32
72096;BME280;59968;51.084;16.748;2024-02-14T11:18:06;100638.36;;;11.77;57.94
72096;BME280;59968;51.084;16.748;2024-02-14T11:20:38;100637.77;;;11.82;57.73
72096;BME280;59968;51.084;16.748;2024-02-14T11:23:09;100634.39;;;11.91;57.81
72096;BME280;59968;51.084;16.748;2024-02-14T11:25:40;100629.48;;;11.99;57.38
72096;BME280;59968;51.084;16.748;2024-02-14T11:28:19;100622.70;;;12.08;56.17
72096;BME280;59968;51.084;16.748;2024-02-14T11:30:52;100618.61;;;12.05;55.22
72096;BME280;59968;51.084;16.748;2024-02-14T11:33:24;100621.98;;;12.08;55.84
72096;BME280;59968;51.084;16.748;2024-02-14T11:35:54;100622.93;;;12.11;56.19
72096;BME280;59968;51.084;16.748;2024-02-14T11:38:24;100616.98;;;12.12;56.23
72096;BME280;59968;51.084;16.748;2024-02-14T11:40:58;100613.74;;;12.07;56.67
72096;BME280;59968;51.084;16.748;2024-02-14T11:43:27;100609.27;;;12.03;56.71
72096;BME280;59968;51.084;16.748;2024-02-14T11:45:56;100607.73;;;12.00;57.01
72096;BME280;59968;51.084;16.748;2024-02-14T11:48:25;100600.20;;;11.98;57.63
72096;BME280;59968;51.084;16.748;2024-02-14T11:50:54;100598.70;;;12.02;57.33
72096;BME280;59968;51.084;16.748;2024-02-14T11:53:24;100601.08;;;12.02;57.41
72096;BME280;59968;51.084;16.748;2024-02-14T11:55:53;100601.81;;;12.05;56.80
72096;BME280;59968;51.084;16.748;2024-02-14T11:58:24;100598.49;;;12.05;56.67
72096;BME280;59968;51.084;16.748;2024-02-14T12:00:54;100588.17;;;12.08;56.91
72096;BME280;59968;51.084;16.748;2024-02-14T12:03:24;100588.80;;;12.10;56.53
72096;BME280;59968;51.084;16.748;2024-02-14T12:05:54;100584.17;;;12.14;56.79
72096;BME280;59968;51.084;16.748;2024-02-14T12:08:25;100583.38;;;12.13;56.68
72096;BME280;59968;51.084;16.748;2024-02-14T12:10:54;100580.36;;;12.16;56.43
72096;BME280;59968;51.084;16.748;2024-02-14T12:13:24;100579.06;;;12.21;55.88
72096;BME280;59968;51.084;16.748;2024-02-14T12:15:53;100572.75;;;12.22;55.51
72096;BME280;59968;51.084;16.748;2024-02-14T12:18:22;100579.02;;;12.23;55.41
72096;BME280;59968;51.084;16.748;2024-02-14T12:20:51;100574.84;;;12.27;55.32
72096;BME280;59968;51.084;16.748;2024-02-14T12:23:24;100575.91;;;12.33;55.92
72096;BME280;59968;51.084;16.748;2024-02-14T12:26:01;100572.41;;;12.38;55.73
72096;BME280;59968;51.084;16.748;2024-02-14T12:28:31;100569.19;;;12.42;55.52
72096;BME280;59968;51.084;16.748;2024-02-14T12:31:00;100562.70;;;12.41;55.46
72096;BME280;59968;51.084;16.748;2024-02-14T12:33:29;100563.09;;;12.38;55.38
72096;BME280;59968;51.084;16.748;2024-02-14T12:36:02;100559.43;;;12.36;55.08
72096;BME280;59968;51.084;16.748;2024-02-14T12:38:33;100561.98;;;12.34;55.07
72096;BME280;59968;51.084;16.748;2024-02-14T12:41:02;100561.48;;;12.34;55.53
72096;BME280;59968;51.084;16.748;2024-02-14T12:43:30;100557.70;;;12.33;55.59
72096;BME280;59968;51.084;16.748;2024-02-14T12:46:00;100552.11;;;12.34;55.68
72096;BME280;59968;51.084;16.748;2024-02-14T12:48:29;100553.73;;;12.36;55.91
72096;BME280;59968;51.084;16.748;2024-02-14T12:51:00;100544.38;;;12.34;55.92
72096;BME280;59968;51.084;16.748;2024-02-14T12:53:29;100554.79;;;12.42;55.73
72096;BME280;59968;51.084;16.748;2024-02-14T12:55:58;100553.19;;;12.42;55.65
72096;BME280;59968;51.084;16.748;2024-02-14T12:58:27;100550.02;;;12.42;55.64
72096;BME280;59968;51.084;16.748;2024-02-14T13:00:56;100551.58;;;12.44;55.70
72096;BME280;59968;51.084;16.748;2024-02-14T13:03:25;100549.20;;;12.45;55.69
72096;BME280;59968;51.084;16.748;2024-02-14T13:05:54;100553.15;;;12.46;55.47